createdAt,value
2022-11-06T00:01:21.245Z,10.33
2022-11-06T00:03:53.572Z,11.17
2022-11-06T00:06:41.207Z,11.03
2022-11-06T00:09:12.769Z,10.00
2022-11-06T00:11:40.244Z,10.70
2022-11-06T00:14:09.346Z,9.87
2022-11-06T00:16:39.150Z,11.17
2022-11-06T00:19:06.596Z,11.67
2022-11-06T00:21:33.531Z,10.70
2022-11-06T00:24:01.200Z,11.03
2022-11-06T00:26:30.692Z,9.93
2022-11-06T00:28:57.550Z,10.57
2022-11-06T00:31:28.444Z,10.63
2022-11-06T00:33:56.808Z,10.23
2022-11-06T00:36:26.483Z,10.80
2022-11-06T00:38:54.250Z,9.83
2022-11-06T00:41:21.576Z,10.57
2022-11-06T00:43:56.800Z,10.47
2022-11-06T00:46:23.775Z,10.60
2022-11-06T00:48:50.832Z,10.97
2022-11-06T00:51:25.614Z,11.60
2022-11-06T00:54:11.255Z,10.73
2022-11-06T00:56:40.283Z,10.40
2022-11-06T00:59:08.423Z,11.37
2022-11-06T01:01:41.038Z,11.17
2022-11-06T01:04:13.086Z,10.87
2022-11-06T01:06:42.068Z,11.00
2022-11-06T01:09:11.291Z,11.20
2022-11-06T01:12:12.942Z,12.30
2022-11-06T01:14:31.741Z,10.83
2022-11-06T01:16:58.521Z,11.13
2022-11-06T01:19:25.247Z,11.60
2022-11-06T01:21:55.510Z,10.90
2022-11-06T01:24:25.041Z,11.77
2022-11-06T01:27:25.469Z,11.40
2022-11-06T01:29:38.967Z,11.33
2022-11-06T01:32:06.452Z,11.73
2022-11-06T01:34:33.254Z,11.83
2022-11-06T01:37:00.030Z,11.53
2022-11-06T01:39:29.280Z,10.90
2022-11-06T01:41:58.148Z,11.33
2022-11-06T01:44:43.210Z,11.57
2022-11-06T01:47:24.957Z,11.90
2022-11-06T01:49:56.195Z,12.00
2022-11-06T01:52:23.049Z,11.50
2022-11-06T01:54:55.155Z,11.83
2022-11-06T01:57:22.176Z,11.77
2022-11-06T01:59:48.988Z,12.60
2022-11-06T02:02:16.127Z,11.23
2022-11-06T02:04:49.867Z,11.30
2022-11-06T02:07:19.257Z,12.07
2022-11-06T02:09:50.749Z,11.80
2022-11-06T02:12:37.749Z,12.63
2022-11-06T02:15:26.339Z,11.83
2022-11-06T02:17:58.961Z,12.30
2022-11-06T02:20:41.221Z,11.03
2022-11-06T02:23:32.025Z,11.23
2022-11-06T02:26:07.987Z,10.50
2022-11-06T02:28:39.876Z,11.87
2022-11-06T02:31:13.425Z,11.80
2022-11-06T02:33:48.922Z,11.97
2022-11-06T02:36:18.308Z,11.10
2022-11-06T02:38:49.988Z,11.93
2022-11-06T02:41:21.181Z,9.93
2022-11-06T02:43:50.408Z,10.67
2022-11-06T02:46:18.446Z,11.37
2022-11-06T02:48:49.105Z,10.80
2022-11-06T02:51:18.072Z,11.73
2022-11-06T02:53:47.292Z,11.80
2022-11-06T02:56:20.474Z,11.07
2022-11-06T02:58:52.682Z,10.97
2022-11-06T03:01:45.560Z,11.07
2022-11-06T03:04:23.147Z,11.80
2022-11-06T03:06:53.568Z,11.63
2022-11-06T03:09:21.555Z,11.33
2022-11-06T03:11:59.752Z,11.33
2022-11-06T03:15:25.027Z,11.70
2022-11-06T03:18:18.274Z,11.60
2022-11-06T03:21:03.177Z,11.07
2022-11-06T03:23:49.861Z,11.87
2022-11-06T03:26:20.211Z,11.17
2022-11-06T03:29:05.841Z,11.63
2022-11-06T03:31:34.222Z,12.60
2022-11-06T03:34:15.672Z,12.80
2022-11-06T03:36:46.630Z,12.23
2022-11-06T03:39:16.107Z,14.10
2022-11-06T03:41:44.350Z,15.30
2022-11-06T03:44:13.180Z,13.53
2022-11-06T03:46:42.812Z,13.27
2022-11-06T03:49:11.881Z,12.57
2022-11-06T03:51:45.382Z,12.80
2022-11-06T03:54:34.075Z,12.87
2022-11-06T03:57:23.566Z,12.50
2022-11-06T03:59:52.649Z,13.40
2022-11-06T04:02:19.742Z,13.60
2022-11-06T04:04:50.148Z,13.57
2022-11-06T04:07:26.943Z,12.60
2022-11-06T04:10:14.101Z,12.77
2022-11-06T04:12:59.228Z,13.10
2022-11-06T04:15:26.070Z,12.93
2022-11-06T04:17:52.938Z,13.57
2022-11-06T04:20:40.935Z,13.00
2022-11-06T04:23:44.312Z,13.27
2022-11-06T04:26:37.017Z,12.83
2022-11-06T04:29:27.338Z,13.03
2022-11-06T04:32:21.718Z,11.97
2022-11-06T04:35:06.890Z,13.33
2022-11-06T04:37:33.693Z,13.10
2022-11-06T04:40:10.359Z,12.37
2022-11-06T04:43:16.356Z,13.10
2022-11-06T04:45:46.237Z,12.77
2022-11-06T04:48:16.159Z,12.80
2022-11-06T04:50:48.024Z,14.77
2022-11-06T04:53:15.492Z,13.13
2022-11-06T04:55:50.281Z,14.93
2022-11-06T04:58:17.058Z,13.53
2022-11-06T05:00:48.730Z,13.60
2022-11-06T05:03:18.810Z,13.70
2022-11-06T05:05:45.632Z,14.43
2022-11-06T05:08:19.016Z,13.67
2022-11-06T05:10:45.872Z,15.30
2022-11-06T05:13:12.917Z,14.70
2022-11-06T05:15:39.759Z,13.90
2022-11-06T05:18:06.775Z,14.20
2022-11-06T05:20:35.979Z,14.93
2022-11-06T05:23:05.239Z,14.60
2022-11-06T05:25:40.211Z,14.60
2022-11-06T05:28:07.636Z,14.50
2022-11-06T05:30:35.626Z,13.50
2022-11-06T05:33:02.498Z,14.20
2022-11-06T05:35:29.253Z,14.80
2022-11-06T05:38:00.182Z,14.60
2022-11-06T05:40:27.008Z,14.10
2022-11-06T05:42:56.201Z,12.97
2022-11-06T05:45:23.072Z,14.00
2022-11-06T05:47:49.867Z,12.63
2022-11-06T05:50:16.807Z,14.10
2022-11-06T05:52:43.649Z,12.80
2022-11-06T05:55:14.736Z,13.30
2022-11-06T05:57:42.316Z,12.90
2022-11-06T06:00:10.530Z,13.77
2022-11-06T06:02:37.716Z,13.30
2022-11-06T06:05:05.527Z,14.00
2022-11-06T06:07:32.655Z,13.57
2022-11-06T06:09:59.391Z,13.30
2022-11-06T06:12:26.561Z,14.43
2022-11-06T06:14:56.198Z,14.10
2022-11-06T06:17:25.137Z,14.37
2022-11-06T06:19:54.148Z,13.27
2022-11-06T06:22:23.107Z,13.60
2022-11-06T06:24:52.301Z,13.53
2022-11-06T06:27:19.453Z,13.20
2022-11-06T06:29:46.195Z,13.90
2022-11-06T06:32:17.776Z,13.90
2022-11-06T06:34:44.577Z,12.90
2022-11-06T06:37:11.823Z,13.00
2022-11-06T06:39:42.670Z,13.43
2022-11-06T06:42:11.660Z,20.40
2022-11-06T06:44:38.566Z,15.20
2022-11-06T06:47:05.402Z,14.80
2022-11-06T06:49:32.210Z,14.23
2022-11-06T06:51:59.020Z,14.93
2022-11-06T06:54:25.759Z,15.63
2022-11-06T06:56:52.545Z,15.20
2022-11-06T06:59:19.294Z,15.13
2022-11-06T07:01:48.349Z,15.33
2022-11-06T07:04:15.265Z,17.13
2022-11-06T07:06:42.108Z,15.83
2022-11-06T07:09:09.557Z,15.53
2022-11-06T07:11:38.749Z,15.97
2022-11-06T07:14:05.522Z,15.57
2022-11-06T07:16:34.390Z,16.50
2022-11-06T07:19:01.157Z,16.37
2022-11-06T07:21:32.559Z,16.47
2022-11-06T07:23:59.365Z,16.10
2022-11-06T07:26:31.074Z,18.47
2022-11-06T07:28:57.803Z,18.27
2022-11-06T07:31:24.606Z,18.73
2022-11-06T07:33:56.490Z,17.13
2022-11-06T07:36:28.347Z,17.67
2022-11-06T07:38:55.084Z,19.30
2022-11-06T07:41:21.932Z,22.17
2022-11-06T07:43:49.563Z,21.97
2022-11-06T07:46:16.380Z,19.80
2022-11-06T07:48:43.177Z,19.27
2022-11-06T07:51:12.741Z,17.77
2022-11-06T07:53:39.514Z,18.63
2022-11-06T07:56:06.716Z,17.00
2022-11-06T07:58:36.446Z,13.97
2022-11-06T08:01:03.581Z,14.90
2022-11-06T08:03:30.609Z,13.30
2022-11-06T08:05:58.342Z,12.90
2022-11-06T08:08:25.171Z,12.53
2022-11-06T08:10:53.804Z,11.93
2022-11-06T08:13:20.641Z,12.50
2022-11-06T08:15:47.440Z,12.53
2022-11-06T08:18:14.521Z,12.20
2022-11-06T08:20:41.502Z,13.13
2022-11-06T08:23:08.966Z,12.27
2022-11-06T08:25:35.826Z,12.07
2022-11-06T08:28:02.632Z,12.93
2022-11-06T08:30:29.734Z,12.53
2022-11-06T08:32:59.727Z,12.30
2022-11-06T08:35:29.294Z,11.97
2022-11-06T08:37:56.372Z,12.30
2022-11-06T08:40:30.556Z,11.50
2022-11-06T08:43:01.901Z,12.77
2022-11-06T08:45:31.320Z,11.33
2022-11-06T08:48:02.618Z,12.53
2022-11-06T08:50:33.476Z,13.07
2022-11-06T08:53:04.583Z,27.43
2022-11-06T08:55:34.160Z,16.23
2022-11-06T08:58:09.883Z,15.17
2022-11-06T09:00:49.113Z,14.60
2022-11-06T09:03:17.925Z,14.37
2022-11-06T09:05:44.925Z,14.33
2022-11-06T09:08:17.368Z,14.97
2022-11-06T09:10:44.326Z,14.30
2022-11-06T09:13:11.610Z,14.77
2022-11-06T09:15:38.918Z,14.77
2022-11-06T09:18:05.728Z,15.10
2022-11-06T09:20:32.515Z,15.97
2022-11-06T09:23:03.779Z,15.93
2022-11-06T09:25:33.161Z,19.03
2022-11-06T09:28:00.155Z,17.73
2022-11-06T09:30:28.536Z,17.40
2022-11-06T09:32:58.833Z,16.33
2022-11-06T09:35:33.909Z,16.37
2022-11-06T09:38:08.322Z,16.73
2022-11-06T09:40:48.802Z,16.97
2022-11-06T09:44:04.200Z,16.93
2022-11-06T09:46:39.162Z,16.40
2022-11-06T09:49:31.556Z,17.30
2022-11-06T09:52:06.457Z,19.00
2022-11-06T09:54:42.351Z,19.97
2022-11-06T09:57:44.738Z,20.00
2022-11-06T10:00:13.062Z,21.23
2022-11-06T10:02:47.880Z,20.43
2022-11-06T10:05:14.793Z,20.63
2022-11-06T10:07:41.834Z,19.23
2022-11-06T10:10:15.302Z,19.93
2022-11-06T10:12:57.002Z,19.27
2022-11-06T10:15:30.372Z,19.13
2022-11-06T10:18:16.213Z,18.40
2022-11-06T10:20:50.637Z,18.73
2022-11-06T10:23:17.568Z,17.33
2022-11-06T10:25:59.556Z,16.63
2022-11-06T10:29:04.068Z,15.80
2022-11-06T10:31:37.809Z,16.97
2022-11-06T10:34:08.560Z,18.03
2022-11-06T10:36:44.079Z,18.13
2022-11-06T10:39:20.367Z,17.73
2022-11-06T10:41:52.744Z,17.33
2022-11-06T10:44:35.686Z,17.10
2022-11-06T10:47:06.775Z,17.87
2022-11-06T10:49:40.671Z,16.10
2022-11-06T10:52:07.376Z,15.93
2022-11-06T10:54:46.250Z,16.77
2022-11-06T10:57:34.357Z,15.80
2022-11-06T11:00:01.188Z,17.27
2022-11-06T11:02:37.677Z,17.33
2022-11-06T11:05:20.836Z,17.07
2022-11-06T11:07:48.839Z,17.80
2022-11-06T11:10:30.757Z,17.90
2022-11-06T11:13:04.087Z,20.00
2022-11-06T11:15:55.045Z,18.73
2022-11-06T11:18:31.117Z,19.03
2022-11-06T11:21:27.763Z,18.53
2022-11-06T11:24:10.624Z,18.13
2022-11-06T11:26:46.476Z,18.27
2022-11-06T11:29:19.277Z,18.10
2022-11-06T11:31:48.042Z,17.27
2022-11-06T11:34:20.005Z,17.80
2022-11-06T11:37:03.011Z,17.73
2022-11-06T11:39:37.052Z,16.60
2022-11-06T11:42:28.967Z,17.23
2022-11-06T11:45:16.811Z,16.73
2022-11-06T11:47:51.604Z,14.97
2022-11-06T11:50:34.588Z,16.60
2022-11-06T11:53:10.839Z,16.77
2022-11-06T11:55:43.908Z,17.17
2022-11-06T11:58:22.526Z,16.57
2022-11-06T12:00:59.922Z,15.13
2022-11-06T12:03:33.516Z,15.93
2022-11-06T12:06:14.302Z,16.30
2022-11-06T12:08:52.221Z,17.60
2022-11-06T12:11:26.338Z,17.10
2022-11-06T12:14:24.944Z,16.83
2022-11-06T12:16:53.589Z,16.70
2022-11-06T12:19:21.066Z,15.37
2022-11-06T12:21:51.863Z,16.20
2022-11-06T12:24:23.169Z,15.80
2022-11-06T12:26:58.536Z,16.73
2022-11-06T12:29:31.173Z,16.70
2022-11-06T12:32:13.056Z,12.57
2022-11-06T12:34:48.478Z,13.80
2022-11-06T12:37:42.974Z,14.53
2022-11-06T12:40:25.177Z,15.37
2022-11-06T12:43:03.337Z,13.53
2022-11-06T12:45:46.109Z,12.93
2022-11-06T12:48:34.776Z,13.57
2022-11-06T12:51:49.745Z,13.67
2022-11-06T12:54:37.696Z,13.87
2022-11-06T12:57:31.465Z,13.17
2022-11-06T13:00:20.844Z,17.13
2022-11-06T13:03:09.440Z,15.13
2022-11-06T13:05:41.298Z,13.03
2022-11-06T13:08:36.118Z,11.20
2022-11-06T13:11:41.036Z,9.67
2022-11-06T13:14:19.669Z,8.53
2022-11-06T13:16:52.372Z,7.33
2022-11-06T13:19:43.982Z,7.97
2022-11-06T13:22:29.306Z,8.07
2022-11-06T13:25:05.922Z,7.63
2022-11-06T13:27:59.483Z,8.40
2022-11-06T13:30:28.879Z,8.40
2022-11-06T13:33:24.666Z,8.10
2022-11-06T13:35:51.460Z,8.53
2022-11-06T13:38:35.107Z,8.23
2022-11-06T13:41:07.916Z,7.03
2022-11-06T13:43:45.999Z,6.40
2022-11-06T13:46:49.559Z,6.77
2022-11-06T13:49:37.901Z,7.30
2022-11-06T13:52:16.780Z,7.57
2022-11-06T13:54:59.807Z,6.57
2022-11-06T13:57:48.471Z,6.83
2022-11-06T14:00:36.792Z,6.87
2022-11-06T14:03:09.402Z,6.37
2022-11-06T14:05:55.893Z,5.90
2022-11-06T14:08:44.923Z,7.03
2022-11-06T14:11:13.287Z,6.80
2022-11-06T14:13:40.077Z,6.80
2022-11-06T14:16:22.206Z,6.63
2022-11-06T14:19:11.535Z,7.33
2022-11-06T14:21:48.113Z,7.63
2022-11-06T14:24:26.981Z,7.10
2022-11-06T14:26:53.784Z,7.73
2022-11-06T14:29:26.936Z,7.23
2022-11-06T14:32:11.989Z,7.27
2022-11-06T14:34:42.876Z,7.03
2022-11-06T14:37:18.695Z,7.17
2022-11-06T14:39:51.233Z,7.70
2022-11-06T14:42:22.915Z,7.70
2022-11-06T14:44:57.350Z,7.80
2022-11-06T14:47:25.543Z,7.77
2022-11-06T14:49:54.004Z,8.07
2022-11-06T14:52:24.380Z,8.30
2022-11-06T14:54:54.824Z,8.30
2022-11-06T14:57:42.438Z,8.57
2022-11-06T15:00:13.588Z,8.47
2022-11-06T15:02:40.430Z,9.23
2022-11-06T15:05:08.587Z,9.40
2022-11-06T15:08:03.887Z,8.40
2022-11-06T15:10:45.407Z,8.13
2022-11-06T15:13:25.373Z,10.00
2022-11-06T15:16:01.200Z,10.97
2022-11-06T15:18:33.012Z,9.27
2022-11-06T15:21:04.875Z,8.33
2022-11-06T15:24:02.819Z,8.60
2022-11-06T15:26:45.654Z,8.07
2022-11-06T15:29:20.370Z,7.57
2022-11-06T15:31:49.143Z,7.60
2022-11-06T15:34:55.802Z,7.83
2022-11-06T15:37:27.159Z,7.20
2022-11-06T15:40:00.187Z,7.93
2022-11-06T15:42:37.288Z,7.93
2022-11-06T15:45:16.804Z,8.27
2022-11-06T15:48:06.540Z,8.10
2022-11-06T15:50:34.510Z,9.10
2022-11-06T15:53:14.088Z,9.23
2022-11-06T15:55:58.815Z,12.50
2022-11-06T15:58:31.548Z,11.00
2022-11-06T16:01:01.829Z,11.47
2022-11-06T16:03:32.453Z,11.80
2022-11-06T16:06:03.878Z,11.70
2022-11-06T16:08:33.170Z,11.80
2022-11-06T16:11:00.169Z,11.53
2022-11-06T16:13:26.937Z,11.93
2022-11-06T16:16:03.147Z,12.00
2022-11-06T16:18:41.326Z,12.13
2022-11-06T16:21:12.216Z,11.77
2022-11-06T16:24:06.981Z,11.97
2022-11-06T16:26:35.622Z,11.23
2022-11-06T16:29:05.684Z,11.43
2022-11-06T16:31:32.525Z,12.83
2022-11-06T16:34:04.823Z,11.77
2022-11-06T16:36:48.508Z,10.73
2022-11-06T16:39:18.290Z,13.57
2022-11-06T16:42:06.688Z,12.33
2022-11-06T16:44:36.473Z,12.33
2022-11-06T16:47:19.802Z,12.33
2022-11-06T16:49:55.895Z,12.33
2022-11-06T16:52:35.725Z,12.23
2022-11-06T16:55:03.947Z,11.87
2022-11-06T16:57:36.475Z,11.47
2022-11-06T17:00:11.930Z,11.20
2022-11-06T17:02:40.891Z,11.37
2022-11-06T17:05:15.244Z,11.83
2022-11-06T17:07:42.272Z,11.87
2022-11-06T17:10:41.941Z,11.53
2022-11-06T17:13:22.414Z,11.33
2022-11-06T17:15:52.857Z,13.27
2022-11-06T17:18:24.416Z,10.77
2022-11-06T17:20:53.479Z,10.80
2022-11-06T17:23:21.758Z,11.37
2022-11-06T17:25:50.981Z,11.07
2022-11-06T17:28:18.961Z,10.60
2022-11-06T17:30:46.949Z,10.70
2022-11-06T17:33:14.033Z,10.70
2022-11-06T17:35:41.386Z,11.27
2022-11-06T17:38:08.272Z,10.50
2022-11-06T17:40:35.193Z,10.27
2022-11-06T17:43:01.921Z,10.43
2022-11-06T17:45:28.714Z,10.67
2022-11-06T17:47:57.585Z,10.43
2022-11-06T17:50:24.350Z,11.33
2022-11-06T17:52:53.545Z,10.53
2022-11-06T17:55:20.302Z,11.00
2022-11-06T17:57:49.558Z,11.43
2022-11-06T18:00:20.803Z,10.33
2022-11-06T18:03:01.134Z,10.10
2022-11-06T18:05:28.901Z,10.93
2022-11-06T18:07:55.659Z,10.57
2022-11-06T18:10:27.424Z,10.27
2022-11-06T18:12:56.865Z,10.73
2022-11-06T18:15:25.841Z,10.43
2022-11-06T18:17:52.682Z,10.90
2022-11-06T18:20:21.709Z,10.33
2022-11-06T18:22:48.485Z,10.23
2022-11-06T18:25:15.286Z,9.70
2022-11-06T18:27:42.126Z,10.23
2022-11-06T18:30:09.579Z,10.00
2022-11-06T18:32:36.329Z,9.57
2022-11-06T18:35:05.492Z,10.17
2022-11-06T18:37:34.735Z,9.97
2022-11-06T18:40:01.496Z,10.20
2022-11-06T18:42:30.724Z,9.60
2022-11-06T18:44:57.472Z,10.83
2022-11-06T18:47:26.415Z,12.70
2022-11-06T18:49:55.378Z,10.87
2022-11-06T18:52:44.352Z,11.23
2022-11-06T18:55:09.327Z,17.77
2022-11-06T18:57:38.325Z,11.63
2022-11-06T19:00:07.895Z,11.33
2022-11-06T19:02:36.917Z,10.33
2022-11-06T19:05:04.151Z,9.40
2022-11-06T19:07:30.997Z,9.73
2022-11-06T19:10:00.237Z,10.17
2022-11-06T19:12:29.563Z,11.00
2022-11-06T19:14:56.529Z,10.70
2022-11-06T19:17:23.278Z,10.47
2022-11-06T19:19:50.236Z,10.83
2022-11-06T19:22:17.099Z,11.10
2022-11-06T19:24:43.932Z,11.93
2022-11-06T19:27:13.237Z,11.80
2022-11-06T19:29:42.225Z,33.13
2022-11-06T19:32:09.005Z,17.47
2022-11-06T19:34:39.473Z,14.43
2022-11-06T19:37:06.566Z,14.07
2022-11-06T19:39:36.919Z,13.43
2022-11-06T19:42:03.931Z,13.33
2022-11-06T19:44:30.748Z,13.50
2022-11-06T19:46:59.848Z,14.57
2022-11-06T19:49:28.951Z,14.97
2022-11-06T19:51:58.264Z,14.83
2022-11-06T19:54:45.010Z,15.90
2022-11-06T19:57:27.562Z,16.07
2022-11-06T19:59:56.646Z,16.37
2022-11-06T20:02:23.514Z,16.13
2022-11-06T20:04:50.462Z,16.63
2022-11-06T20:07:19.398Z,16.03
2022-11-06T20:09:46.148Z,16.57
2022-11-06T20:12:14.055Z,15.93
2022-11-06T20:14:40.856Z,16.63
2022-11-06T20:17:12.044Z,16.20
2022-11-06T20:19:38.904Z,15.80
2022-11-06T20:22:05.731Z,15.43
2022-11-06T20:24:32.554Z,16.13
2022-11-06T20:26:59.342Z,16.00
2022-11-06T20:29:27.596Z,16.67
2022-11-06T20:31:54.446Z,15.80
2022-11-06T20:34:21.217Z,17.20
2022-11-06T20:36:50.469Z,17.07
2022-11-06T20:39:17.248Z,16.50
2022-11-06T20:41:44.310Z,16.63
2022-11-06T20:44:11.144Z,16.43
2022-11-06T20:46:37.951Z,16.47
2022-11-06T20:49:06.867Z,16.23
2022-11-06T20:51:42.921Z,17.67
2022-11-06T20:54:20.562Z,17.00
2022-11-06T20:56:48.501Z,16.43
2022-11-06T20:59:16.112Z,16.27
2022-11-06T21:01:43.181Z,17.60
2022-11-06T21:04:11.500Z,16.60
2022-11-06T21:06:43.745Z,18.43
2022-11-06T21:09:13.181Z,17.60
2022-11-06T21:11:39.918Z,17.87
2022-11-06T21:14:06.699Z,19.00
2022-11-06T21:16:34.727Z,19.93
2022-11-06T21:19:04.768Z,18.87
2022-11-06T21:21:33.261Z,19.40
2022-11-06T21:24:02.911Z,18.97
2022-11-06T21:26:33.663Z,19.80
2022-11-06T21:29:04.718Z,21.53
2022-11-06T21:31:34.983Z,21.63
2022-11-06T21:34:03.467Z,21.43
2022-11-06T21:36:31.985Z,22.37
2022-11-06T21:39:00.563Z,23.47
2022-11-06T21:41:28.594Z,22.40
2022-11-06T21:43:55.982Z,23.63
2022-11-06T21:46:22.781Z,23.87
2022-11-06T21:48:52.451Z,24.37
2022-11-06T21:51:24.607Z,23.93
2022-11-06T21:54:10.295Z,25.60
2022-11-06T21:56:37.543Z,24.37
2022-11-06T21:59:07.593Z,24.70
2022-11-06T22:01:34.484Z,24.37
2022-11-06T22:04:01.341Z,23.43
2022-11-06T22:06:28.429Z,24.33
2022-11-06T22:08:56.509Z,24.93
2022-11-06T22:11:33.561Z,22.70
2022-11-06T22:14:01.923Z,22.60
2022-11-06T22:16:39.001Z,22.67
2022-11-06T22:19:08.772Z,22.10
2022-11-06T22:21:38.938Z,22.73
2022-11-06T22:24:07.153Z,21.53
2022-11-06T22:26:36.625Z,21.30
2022-11-06T22:29:09.280Z,22.07
2022-11-06T22:31:38.684Z,21.33
2022-11-06T22:34:05.498Z,20.17
2022-11-06T22:36:32.520Z,21.20
2022-11-06T22:39:00.694Z,22.10
2022-11-06T22:41:27.529Z,22.00
2022-11-06T22:44:00.280Z,21.43
2022-11-06T22:46:27.334Z,21.37
2022-11-06T22:48:54.466Z,21.90
2022-11-06T22:51:23.569Z,22.53
2022-11-06T22:53:50.557Z,22.70
2022-11-06T22:56:20.526Z,22.10
2022-11-06T22:58:49.743Z,21.70
2022-11-06T23:01:19.844Z,23.43
2022-11-06T23:03:46.603Z,22.93
2022-11-06T23:06:13.521Z,22.63
2022-11-06T23:08:46.714Z,23.20
2022-11-06T23:11:14.372Z,22.90
2022-11-06T23:13:41.224Z,23.67
2022-11-06T23:16:11.086Z,21.73
2022-11-06T23:18:40.143Z,23.07
2022-11-06T23:21:14.292Z,23.37
2022-11-06T23:23:42.349Z,23.60
2022-11-06T23:26:16.397Z,23.37
2022-11-06T23:28:46.140Z,24.23
2022-11-06T23:31:16.533Z,24.20
2022-11-06T23:33:43.555Z,23.77
2022-11-06T23:36:12.243Z,23.33
2022-11-06T23:38:39.058Z,22.80
2022-11-06T23:41:29.119Z,23.50
2022-11-06T23:43:56.143Z,22.53
2022-11-06T23:46:24.567Z,22.47
2022-11-06T23:48:51.396Z,23.93
2022-11-06T23:51:18.415Z,23.23
2022-11-06T23:53:45.382Z,23.30
2022-11-06T23:56:12.475Z,23.83
2022-11-06T23:58:42.169Z,22.43
